Time;durP1;ratioP1;P1;durP2;ratioP2;P2;SDS_P1;SDS_P2;PMS_P1;PMS_P2;Temp;Humidity;BMP_temperature;BMP_pressure;BME280_temperature;BME280_humidity;BME280_pressure;Samples;Min_cycle;Max_cycle;Signal;HPM_P1;HPM_P2
2023/08/19 00:00:00;;;;;;;50.13;8.55;;;17.00;99.90;;;;;;4972380;28;20110;-76
2023/08/19 00:02:26;;;;;;;46.67;8.60;;;16.90;99.90;;;;;;4971447;28;20038;-76
2023/08/19 00:04:51;;;;;;;42.17;7.75;;;16.90;99.90;;;;;;4972254;28;20487;-76
2023/08/19 00:07:17;;;;;;;44.42;8.80;;;16.90;99.90;;;;;;4971651;28;20035;-77
2023/08/19 00:09:43;;;;;;;43.60;8.00;;;16.90;99.90;;;;;;4971926;28;20491;-77
2023/08/19 00:12:09;;;;;;;53.00;8.15;;;16.80;99.90;;;;;;4971458;28;20165;-76
2023/08/19 00:14:34;;;;;;;54.33;7.85;;;16.70;99.90;;;;;;4970977;28;20528;-74
2023/08/19 00:17:00;;;;;;;51.00;8.35;;;16.70;99.90;;;;;;4971443;28;20034;-76
2023/08/19 00:19:26;;;;;;;50.38;8.25;;;16.60;99.90;;;;;;4971020;28;20023;-78
2023/08/19 00:21:52;;;;;;;48.60;7.65;;;16.60;99.90;;;;;;4971481;28;20396;-78
2023/08/19 00:24:17;;;;;;;55.67;8.77;;;16.60;99.90;;;;;;4970703;28;20022;-77
2023/08/19 00:27:02;;;;;;;55.92;8.00;;;16.60;99.90;;;;;;4971308;28;20034;-79
2023/08/19 00:29:27;;;;;;;63.22;9.10;;;16.50;99.90;;;;;;4971251;28;20459;-78
2023/08/19 00:31:53;;;;;;;50.28;8.90;;;16.60;99.90;;;;;;4971365;28;20030;-77
2023/08/19 00:34:19;;;;;;;53.75;7.78;;;16.50;99.90;;;;;;4971217;28;20030;-77
2023/08/19 00:36:45;;;;;;;51.38;7.85;;;16.50;99.90;;;;;;4971119;28;20037;-77
2023/08/19 00:39:10;;;;;;;64.28;7.80;;;16.40;99.90;;;;;;4971300;28;20353;-78
2023/08/19 00:41:36;;;;;;;46.83;7.50;;;16.40;99.90;;;;;;4969372;28;20854;-78
2023/08/19 00:44:03;;;;;;;66.78;8.40;;;16.40;99.90;;;;;;4971087;28;20030;-78
2023/08/19 00:46:29;;;;;;;56.17;6.97;;;16.40;99.90;;;;;;4970892;28;20035;-78
2023/08/19 00:48:57;;;;;;;56.50;8.45;;;16.30;99.90;;;;;;4971192;28;20113;-78
2023/08/19 00:51:23;;;;;;;56.22;10.20;;;16.30;99.90;;;;;;4971823;28;20496;-78
2023/08/19 00:53:50;;;;;;;54.67;7.80;;;16.30;99.90;;;;;;4975248;28;20097;-78
2023/08/19 00:56:16;;;;;;;53.40;7.88;;;16.30;99.90;;;;;;4974811;28;20412;-76
2023/08/19 00:58:42;;;;;;;59.60;8.63;;;16.30;99.90;;;;;;4974348;28;20119;-77
2023/08/19 01:01:08;;;;;;;46.75;6.80;;;16.30;99.90;;;;;;4975098;28;20065;-77
2023/08/19 01:03:34;;;;;;;41.35;6.03;;;16.30;99.90;;;;;;4973980;28;20133;-77
2023/08/19 01:06:38;;;;;;;39.92;6.07;;;16.30;99.90;;;;;;4974647;28;20114;-76
2023/08/19 01:09:21;;;;;;;42.05;6.07;;;16.30;99.90;;;;;;4941844;28;20039;-77
2023/08/19 01:11:46;;;;;;;;;;;16.30;99.90;;;;;;4974160;28;20059;-77
2023/08/19 01:14:18;;;;;;;35.13;6.22;;;16.30;99.90;;;;;;4974304;28;20338;-77
2023/08/19 01:16:49;;;;;;;34.90;5.13;;;16.30;99.90;;;;;;4974377;28;20119;-77
2023/08/19 01:19:24;;;;;;;28.67;4.53;;;16.30;99.90;;;;;;4972957;28;20035;-77
2023/08/19 01:21:55;;;;;;;33.28;5.03;;;16.20;99.90;;;;;;4974403;28;20110;-77
2023/08/19 01:24:24;;;;;;;25.98;3.88;;;16.20;99.90;;;;;;4973397;28;20031;-78
2023/08/19 01:26:50;;;;;;;21.25;3.70;;;16.20;99.90;;;;;;4974368;28;20117;-79
2023/08/19 01:29:16;;;;;;;24.05;4.32;;;16.20;99.90;;;;;;4973762;28;20126;-77
2023/08/19 01:31:41;;;;;;;24.35;3.42;;;16.30;99.90;;;;;;4973336;28;20486;-77
2023/08/19 01:34:07;;;;;;;18.23;2.95;;;16.20;99.90;;;;;;4974318;28;20109;-76
2023/08/19 01:36:41;;;;;;;15.90;2.90;;;16.20;99.90;;;;;;4973280;28;20030;-76
2023/08/19 01:39:10;;;;;;;15.38;2.65;;;16.20;99.90;;;;;;4972397;28;20125;-76
2023/08/19 01:41:37;;;;;;;13.93;2.67;;;16.30;99.90;;;;;;4973823;28;20054;-75
2023/08/19 01:44:03;;;;;;;11.65;2.47;;;16.30;99.90;;;;;;4973382;28;20464;-76
2023/08/19 01:46:29;;;;;;;8.52;2.50;;;16.30;99.90;;;;;;4973420;28;20096;-77
2023/08/19 01:48:55;;;;;;;11.50;2.03;;;16.40;99.90;;;;;;4973683;28;20027;-77
2023/08/19 01:51:24;;;;;;;10.48;1.77;;;16.30;99.90;;;;;;4973414;28;20061;-77
2023/08/19 01:53:49;;;;;;;13.27;2.15;;;16.40;99.90;;;;;;4973913;28;20030;-76
2023/08/19 01:56:16;;;;;;;9.20;2.30;;;16.40;99.90;;;;;;4973658;28;20023;-76
2023/08/19 01:58:42;;;;;;;7.63;1.60;;;16.40;99.90;;;;;;4972838;28;20027;-74
2023/08/19 02:01:11;;;;;;;5.38;1.10;;;16.40;99.90;;;;;;4973774;28;20456;-76
2023/08/19 02:03:37;;;;;;;8.00;1.60;;;16.40;99.90;;;;;;4972248;28;20396;-76
2023/08/19 02:06:02;;;;;;;6.78;1.35;;;16.50;99.90;;;;;;4973294;28;20023;-76
2023/08/19 02:08:28;;;;;;;5.05;1.27;;;16.50;99.90;;;;;;4972687;28;20027;-76
2023/08/19 02:10:54;;;;;;;5.45;1.20;;;16.60;99.90;;;;;;4973065;28;20469;-76
2023/08/19 02:13:20;;;;;;;3.05;1.08;;;16.60;99.90;;;;;;4973378;28;20452;-77
2023/08/19 02:15:45;;;;;;;2.45;0.60;;;16.70;99.90;;;;;;4972572;28;20093;-76
2023/08/19 02:18:11;;;;;;;1.98;0.55;;;16.80;99.90;;;;;;4972845;28;20504;-76
2023/08/19 02:20:37;;;;;;;3.83;0.55;;;16.90;99.90;;;;;;4972642;28;20034;-76
2023/08/19 02:23:03;;;;;;;2.92;0.80;;;16.90;99.90;;;;;;4973202;28;20113;-77
2023/08/19 02:25:28;;;;;;;5.65;0.80;;;16.90;99.90;;;;;;4972193;28;20037;-76
2023/08/19 02:27:54;;;;;;;4.97;0.98;;;17.10;99.90;;;;;;4973157;28;20031;-75
2023/08/19 02:30:20;;;;;;;5.40;1.08;;;17.20;99.90;;;;;;4973104;28;20027;-76
2023/08/19 02:32:46;;;;;;;3.00;0.80;;;17.20;99.90;;;;;;4972839;28;20094;-77
2023/08/19 02:35:11;;;;;;;5.05;0.80;;;17.20;99.90;;;;;;4972783;28;20126;-77
2023/08/19 02:37:38;;;;;;;3.13;0.60;;;17.30;99.90;;;;;;4972903;28;20377;-77
2023/08/19 02:40:06;;;;;;;1.25;0.28;;;17.30;99.90;;;;;;4972959;28;20054;-78
2023/08/19 02:42:31;;;;;;;0.32;0.28;;;17.30;99.90;;;;;;4972185;28;20034;-77
2023/08/19 02:44:57;;;;;;;1.45;0.38;;;17.30;99.90;;;;;;4972937;28;20123;-79
2023/08/19 02:47:23;;;;;;;1.50;0.20;;;17.30;99.90;;;;;;4972612;28;20045;-78
2023/08/19 02:49:49;;;;;;;0.45;0.20;;;17.30;99.90;;;;;;4973326;28;20109;-78
2023/08/19 02:52:14;;;;;;;1.40;0.30;;;17.30;99.90;;;;;;4973857;28;20030;-78
2023/08/19 02:54:40;;;;;;;0.90;0.30;;;17.30;99.90;;;;;;4973151;28;20035;-79
2023/08/19 02:57:06;;;;;;;2.92;0.20;;;17.20;99.90;;;;;;4972143;28;20038;-79
2023/08/19 02:59:32;;;;;;;0.52;0.30;;;17.20;99.90;;;;;;4972356;28;20018;-79
2023/08/19 03:01:57;;;;;;;1.08;0.28;;;17.20;99.90;;;;;;4972987;28;20031;-79
2023/08/19 03:04:23;;;;;;;1.20;0.30;;;17.20;99.90;;;;;;4972179;28;20096;-79
2023/08/19 03:06:49;;;;;;;0.90;0.22;;;17.10;99.90;;;;;;4972522;28;20057;-77
2023/08/19 03:09:14;;;;;;;4.35;0.70;;;17.10;99.90;;;;;;4972394;28;20031;-77
2023/08/19 03:11:41;;;;;;;1.33;0.28;;;17.10;99.90;;;;;;4971733;28;20098;-77
2023/08/19 03:14:07;;;;;;;0.95;0.40;;;17.10;99.90;;;;;;4971863;28;20030;-77
2023/08/19 03:16:33;;;;;;;1.42;0.30;;;17.00;99.90;;;;;;4971311;28;20094;-78
2023/08/19 03:18:59;;;;;;;2.20;0.38;;;17.00;99.90;;;;;;4971909;28;20030;-78
2023/08/19 03:21:24;;;;;;;1.30;0.38;;;17.00;99.90;;;;;;4972325;28;20097;-79
2023/08/19 03:23:50;;;;;;;4.05;0.60;;;17.10;99.90;;;;;;4971854;28;20027;-79
2023/08/19 03:26:16;;;;;;;2.03;0.57;;;17.10;99.90;;;;;;4971894;28;20085;-77
2023/08/19 03:28:41;;;;;;;1.02;0.47;;;17.10;99.90;;;;;;4971171;28;20071;-79
2023/08/19 03:31:08;;;;;;;1.95;0.50;;;17.10;99.90;;;;;;4971775;28;20074;-78
2023/08/19 03:33:34;;;;;;;2.92;0.80;;;17.00;99.90;;;;;;4971629;28;20112;-78
2023/08/19 03:36:00;;;;;;;2.97;0.70;;;17.10;99.90;;;;;;4971741;28;20385;-79
2023/08/19 03:38:26;;;;;;;5.13;0.70;;;17.10;99.90;;;;;;4971827;28;20121;-79
2023/08/19 03:40:52;;;;;;;3.53;0.70;;;17.10;99.90;;;;;;4971433;28;20054;-80
2023/08/19 03:43:18;;;;;;;3.30;0.60;;;17.10;99.90;;;;;;4972087;28;20058;-80
2023/08/19 03:45:43;;;;;;;1.75;0.50;;;17.10;99.90;;;;;;4971231;28;20116;-80
2023/08/19 03:48:10;;;;;;;1.77;0.40;;;17.10;99.90;;;;;;4971952;28;20065;-79
2023/08/19 03:50:36;;;;;;;1.20;0.20;;;17.20;99.90;;;;;;4971869;28;20129;-79
2023/08/19 03:53:02;;;;;;;3.53;0.40;;;17.10;99.90;;;;;;4972411;28;20114;-79
2023/08/19 03:55:31;;;;;;;1.25;0.40;;;17.10;99.90;;;;;;4971262;28;20038;-80
2023/08/19 03:57:56;;;;;;;2.80;0.40;;;17.10;99.90;;;;;;4972062;28;20073;-80
2023/08/19 04:00:22;;;;;;;1.67;0.30;;;17.20;99.90;;;;;;4971986;28;20035;-80
2023/08/19 04:02:48;;;;;;;1.63;0.30;;;17.10;99.90;;;;;;4971453;28;20030;-78
2023/08/19 04:05:14;;;;;;;2.25;0.40;;;17.20;99.90;;;;;;4971828;28;20035;-78
2023/08/19 04:07:40;;;;;;;0.93;0.30;;;17.20;99.90;;;;;;4969903;28;20396;-78
2023/08/19 04:10:08;;;;;;;1.75;0.40;;;17.20;99.90;;;;;;4970318;28;20022;-79
2023/08/19 04:12:34;;;;;;;2.80;0.40;;;17.20;99.90;;;;;;4971302;28;20476;-79
2023/08/19 04:14:59;;;;;;;1.13;0.32;;;17.20;99.90;;;;;;4971860;28;20039;-78
2023/08/19 04:17:25;;;;;;;3.38;0.40;;;17.30;99.90;;;;;;4971579;28;20031;-78
2023/08/19 04:19:51;;;;;;;1.88;0.38;;;17.30;99.90;;;;;;4970858;28;20501;-79
2023/08/19 04:22:18;;;;;;;0.50;0.40;;;17.30;99.90;;;;;;4970364;28;20035;-78
2023/08/19 04:24:50;;;;;;;0.85;0.20;;;17.30;99.90;;;;;;4971117;28;20114;-78
2023/08/19 04:27:16;;;;;;;0.80;0.45;;;17.40;99.90;;;;;;4975728;28;20452;-78
2023/08/19 04:29:42;;;;;;;2.58;0.22;;;17.40;99.90;;;;;;4975530;28;20105;-78
2023/08/19 04:32:08;;;;;;;1.38;0.30;;;17.50;99.90;;;;;;4976004;28;20429;-79
2023/08/19 04:34:34;;;;;;;0.30;0.30;;;17.50;99.90;;;;;;4975129;28;20144;-79
2023/08/19 04:36:59;;;;;;;0.80;0.20;;;17.50;99.90;;;;;;4976269;28;20425;-79
2023/08/19 04:39:26;;;;;;;0.70;0.30;;;17.60;99.90;;;;;;4976375;28;20098;-78
2023/08/19 04:41:53;;;;;;;0.88;0.10;;;17.60;99.90;;;;;;4974913;28;20022;-78
2023/08/19 04:44:19;;;;;;;0.00;0.00;;;17.50;99.90;;;;;;4975295;28;20455;-79
2023/08/19 04:46:45;;;;;;;1.45;0.20;;;17.50;99.90;;;;;;4974269;28;20053;-79
2023/08/19 04:49:11;;;;;;;1.27;0.22;;;17.50;99.90;;;;;;4975334;28;20105;-78
2023/08/19 04:51:36;;;;;;;0.20;0.10;;;17.50;99.90;;;;;;4974600;28;20144;-79
2023/08/19 04:54:03;;;;;;;0.10;0.05;;;17.50;99.90;;;;;;4974957;28;20230;-80
2023/08/19 04:56:29;;;;;;;1.33;0.05;;;17.50;99.90;;;;;;4973710;28;20035;-80
2023/08/19 04:58:55;;;;;;;0.43;0.25;;;17.40;99.90;;;;;;4974138;28;20030;-79
2023/08/19 05:01:20;;;;;;;1.00;0.10;;;17.40;99.90;;;;;;4975365;28;20467;-79
2023/08/19 05:03:46;;;;;;;0.00;0.00;;;17.40;99.90;;;;;;4974452;28;20035;-81
2023/08/19 05:06:12;;;;;;;0.98;0.13;;;17.30;99.90;;;;;;4974864;28;20034;-80
2023/08/19 05:08:38;;;;;;;2.67;0.10;;;17.40;99.90;;;;;;4973956;28;20211;-80
2023/08/19 05:11:04;;;;;;;0.30;0.10;;;17.30;99.90;;;;;;4974582;28;20062;-77
2023/08/19 05:13:29;;;;;;;0.20;0.10;;;17.30;99.90;;;;;;4975021;28;20329;-77
2023/08/19 05:15:59;;;;;;;0.50;0.10;;;17.20;99.90;;;;;;4974388;28;20117;-78
2023/08/19 05:18:25;;;;;;;1.95;0.08;;;17.20;99.90;;;;;;4973546;28;20033;-76
2023/08/19 05:20:52;;;;;;;0.60;0.10;;;17.20;99.90;;;;;;4974333;28;20106;-77
2023/08/19 05:23:17;;;;;;;0.20;0.20;;;17.20;99.90;;;;;;4974756;28;20041;-77
2023/08/19 05:25:43;;;;;;;2.35;0.17;;;17.20;99.90;;;;;;4973757;28;20034;-77
2023/08/19 05:28:10;;;;;;;0.43;0.30;;;17.10;99.90;;;;;;4974892;28;20058;-77
2023/08/19 05:30:36;;;;;;;0.90;0.10;;;17.20;99.90;;;;;;4974042;28;20412;-78
2023/08/19 05:33:02;;;;;;;1.60;0.20;;;17.10;99.90;;;;;;4974875;28;20031;-76
2023/08/19 05:35:28;;;;;;;0.15;0.10;;;17.10;99.90;;;;;;4973036;28;20035;-78
2023/08/19 05:37:54;;;;;;;0.20;0.10;;;17.10;99.90;;;;;;4973055;28;20117;-79
2023/08/19 05:40:20;;;;;;;0.47;0.10;;;17.10;99.90;;;;;;4975139;28;20019;-79
2023/08/19 05:42:46;;;;;;;0.60;0.10;;;17.10;99.90;;;;;;4956388;28;20035;-79
2023/08/19 05:45:12;;;;;;;1.75;0.25;;;17.10;99.90;;;;;;4974731;28;20461;-80
2023/08/19 05:47:37;;;;;;;0.43;0.20;;;17.10;99.90;;;;;;4973893;28;20035;-78
2023/08/19 05:50:05;;;;;;;0.38;0.10;;;17.10;99.90;;;;;;4974107;28;20038;-79
2023/08/19 05:52:32;;;;;;;0.17;0.00;;;17.10;99.90;;;;;;4974310;28;20128;-79
2023/08/19 05:54:58;;;;;;;0.55;0.10;;;17.10;99.90;;;;;;4973446;28;20169;-78
2023/08/19 05:57:24;;;;;;;0.43;0.10;;;17.10;99.90;;;;;;4973925;28;20388;-79
2023/08/19 05:59:50;;;;;;;0.47;0.20;;;17.10;99.90;;;;;;4974091;28;20107;-79
2023/08/19 06:02:15;;;;;;;1.75;0.30;;;17.10;99.90;;;;;;4973478;28;20034;-78
2023/08/19 06:04:42;;;;;;;0.20;0.17;;;17.10;99.90;;;;;;4983822;28;20030;-77
2023/08/19 06:07:09;;;;;;;2.10;0.22;;;17.10;99.90;;;;;;4993476;28;20034;-77
2023/08/19 06:09:34;;;;;;;0.65;0.22;;;17.10;99.90;;;;;;4993076;28;20472;-78
2023/08/19 06:12:02;;;;;;;1.38;0.20;;;17.10;99.90;;;;;;4992393;28;20101;-78
2023/08/19 06:14:28;;;;;;;1.90;0.30;;;17.20;99.90;;;;;;4992736;28;20440;-78
2023/08/19 06:16:53;;;;;;;2.45;0.20;;;17.20;99.90;;;;;;4990874;28;20057;-78
2023/08/19 06:19:19;;;;;;;0.28;0.13;;;17.20;99.90;;;;;;4992670;28;20031;-76
2023/08/19 06:21:46;;;;;;;0.38;0.25;;;17.20;99.90;;;;;;4991889;28;20456;-79
2023/08/19 06:24:12;;;;;;;0.45;0.30;;;17.20;99.90;;;;;;4992531;28;20106;-77
2023/08/19 06:26:37;;;;;;;1.17;0.20;;;17.30;99.90;;;;;;4992338;28;20026;-79
2023/08/19 06:29:03;;;;;;;3.70;0.70;;;17.30;99.90;;;;;;4992393;28;20134;-77
2023/08/19 06:31:30;;;;;;;0.98;0.30;;;17.30;99.90;;;;;;4992542;28;20384;-76
2023/08/19 06:33:55;;;;;;;5.10;0.93;;;17.30;99.90;;;;;;4991635;28;20089;-79
2023/08/19 06:36:25;;;;;;;1.73;0.40;;;17.30;99.90;;;;;;4992000;28;20034;-78
2023/08/19 06:39:12;;;;;;;5.72;1.02;;;17.20;99.90;;;;;;4990145;28;20078;-77
2023/08/19 06:41:41;;;;;;;1.15;0.82;;;17.10;99.90;;;;;;4992092;28;20045;-79
2023/08/19 06:44:08;;;;;;;3.55;0.90;;;17.20;99.90;;;;;;4992010;28;20344;-77
2023/08/19 06:46:35;;;;;;;3.05;0.70;;;17.20;99.90;;;;;;4992456;28;20041;-78
2023/08/19 06:49:01;;;;;;;2.03;0.60;;;17.10;99.90;;;;;;4990724;28;20026;-79
2023/08/19 06:51:29;;;;;;;4.15;0.73;;;17.20;99.90;;;;;;4990596;28;20333;-79
2023/08/19 06:53:55;;;;;;;1.90;0.73;;;17.30;99.90;;;;;;4992087;28;20113;-79
2023/08/19 06:56:24;;;;;;;1.45;0.68;;;17.30;99.90;;;;;;4993113;28;20022;-78
2023/08/19 06:59:01;;;;;;;1.98;0.80;;;17.40;99.90;;;;;;4992075;28;20026;-77
2023/08/19 07:01:30;;;;;;;3.80;0.90;;;17.50;99.90;;;;;;4993210;28;20054;-80
2023/08/19 07:03:57;;;;;;;2.15;0.70;;;17.60;99.90;;;;;;4992408;28;20058;-77
2023/08/19 07:06:26;;;;;;;3.33;0.90;;;17.70;99.90;;;;;;4992206;28;20033;-79
2023/08/19 07:08:53;;;;;;;2.85;1.10;;;17.80;99.90;;;;;;4993597;28;20056;-79
2023/08/19 07:11:19;;;;;;;2.63;1.02;;;17.90;99.90;;;;;;4991635;28;20023;-80
2023/08/19 07:13:45;;;;;;;1.60;0.77;;;18.10;99.90;;;;;;4991053;28;20040;-79
2023/08/19 07:16:12;;;;;;;2.40;1.00;;;18.20;99.90;;;;;;4991883;28;20112;-79
2023/08/19 07:18:41;;;;;;;3.25;1.02;;;18.30;99.90;;;;;;4992057;28;20035;-78
2023/08/19 07:21:10;;;;;;;3.42;0.90;;;18.30;99.90;;;;;;4991808;28;20378;-80
2023/08/19 07:23:39;;;;;;;3.60;0.88;;;18.30;99.90;;;;;;4989993;28;20062;-80
2023/08/19 07:26:05;;;;;;;5.07;1.20;;;18.20;99.90;;;;;;4991335;28;20109;-79
2023/08/19 07:28:32;;;;;;;4.88;1.20;;;18.20;99.90;;;;;;4991409;28;20114;-79
2023/08/19 07:30:58;;;;;;;4.80;1.20;;;18.10;99.90;;;;;;4991328;28;20053;-78
2023/08/19 07:33:24;;;;;;;4.13;1.00;;;18.10;99.90;;;;;;4991555;28;20034;-79
2023/08/19 07:35:51;;;;;;;5.03;1.25;;;18.00;99.90;;;;;;4991382;28;20045;-78
2023/08/19 07:38:17;;;;;;;3.25;1.10;;;18.00;99.90;;;;;;4991003;28;20049;-78
2023/08/19 07:40:43;;;;;;;3.60;1.13;;;18.10;99.90;;;;;;4989731;28;20026;-79
2023/08/19 07:43:09;;;;;;;4.50;1.25;;;18.20;99.90;;;;;;4991484;28;20027;-77
2023/08/19 07:45:35;;;;;;;4.88;1.27;;;18.40;99.90;;;;;;4991230;28;20491;-77
2023/08/19 07:48:00;;;;;;;4.53;0.90;;;18.70;99.90;;;;;;4990780;28;20029;-77
2023/08/19 07:50:26;;;;;;;2.45;0.85;;;18.90;99.90;;;;;;4991399;28;20379;-78
2023/08/19 07:52:52;;;;;;;1.75;0.70;;;19.10;99.90;;;;;;4990890;28;20034;-78
2023/08/19 07:55:18;;;;;;;4.15;1.30;;;19.10;99.90;;;;;;5005963;28;20034;-77
2023/08/19 07:57:44;;;;;;;2.85;1.17;;;19.20;99.90;;;;;;4990950;28;20084;-80
2023/08/19 08:00:10;;;;;;;5.80;0.95;;;19.30;99.90;;;;;;4992210;28;20372;-79
2023/08/19 08:02:35;;;;;;;2.25;0.73;;;19.30;99.90;;;;;;4994835;28;20149;-78
2023/08/19 08:05:02;;;;;;;4.20;1.23;;;19.30;99.90;;;;;;4993806;28;20129;-79
2023/08/19 08:07:28;;;;;;;1.63;0.55;;;19.30;99.90;;;;;;4994484;28;20034;-79
2023/08/19 08:09:54;;;;;;;2.60;0.70;;;19.30;99.90;;;;;;4993906;28;20379;-78
2023/08/19 08:12:20;;;;;;;4.35;1.00;;;19.40;99.90;;;;;;4994219;28;20049;-79
2023/08/19 08:14:45;;;;;;;5.03;1.00;;;19.40;99.90;;;;;;4993731;28;20037;-80
2023/08/19 08:17:11;;;;;;;3.92;0.77;;;19.40;99.90;;;;;;4994115;28;20026;-79
2023/08/19 08:19:38;;;;;;;4.90;1.10;;;19.40;99.90;;;;;;4994205;28;20034;-78
2023/08/19 08:22:05;;;;;;;3.63;0.82;;;19.40;99.90;;;;;;4993225;28;20117;-78
2023/08/19 08:24:31;;;;;;;2.35;0.93;;;19.40;99.90;;;;;;4994011;28;20372;-79
2023/08/19 08:26:57;;;;;;;5.22;1.00;;;19.30;99.90;;;;;;4993578;28;20038;-80
2023/08/19 08:29:24;;;;;;;4.70;0.90;;;19.30;99.90;;;;;;4993494;28;20033;-79
2023/08/19 08:31:50;;;;;;;3.47;0.98;;;19.30;99.90;;;;;;4993876;28;20030;-79
2023/08/19 08:34:15;;;;;;;2.58;0.95;;;19.40;99.90;;;;;;4993902;28;20059;-78
2023/08/19 08:36:41;;;;;;;2.17;0.75;;;19.50;99.90;;;;;;4992765;28;20026;-79
2023/08/19 08:39:07;;;;;;;3.67;0.93;;;19.50;99.90;;;;;;4993133;28;20051;-79
2023/08/19 08:41:37;;;;;;;2.17;0.73;;;19.60;99.90;;;;;;4993708;28;20030;-79
2023/08/19 08:44:04;;;;;;;1.73;0.80;;;19.50;99.90;;;;;;4992620;28;20030;-80
2023/08/19 08:46:31;;;;;;;3.95;1.10;;;19.60;99.90;;;;;;4993680;28;20034;-79
2023/08/19 08:48:57;;;;;;;4.90;0.70;;;19.90;99.90;;;;;;4993185;28;20045;-78
2023/08/19 08:51:25;;;;;;;2.20;0.80;;;20.00;99.90;;;;;;4993448;28;20459;-77
2023/08/19 08:53:54;;;;;;;2.40;0.85;;;20.00;99.90;;;;;;4993001;28;20125;-78
2023/08/19 08:56:21;;;;;;;4.72;0.63;;;20.00;99.90;;;;;;4994678;28;20439;-77
2023/08/19 08:58:47;;;;;;;3.92;0.77;;;20.00;99.90;;;;;;4993565;28;20109;-77
2023/08/19 09:01:15;;;;;;;1.90;1.00;;;19.90;99.90;;;;;;4994274;28;20305;-78
2023/08/19 09:03:42;;;;;;;1.55;0.80;;;19.80;99.90;;;;;;4993832;28;20451;-77
2023/08/19 09:06:16;;;;;;;3.63;1.00;;;19.50;99.90;;;;;;4993449;28;20026;-77
2023/08/19 09:09:02;;;;;;;2.88;1.10;;;19.40;99.90;;;;;;4994529;28;20223;-77
2023/08/19 09:11:34;;;;;;;4.10;1.20;;;19.20;99.90;;;;;;4993413;28;20072;-77
2023/08/19 09:14:32;;;;;;;3.90;1.00;;;19.10;99.90;;;;;;4991631;28;20395;-77
2023/08/19 09:16:58;;;;;;;3.85;0.85;;;19.00;99.90;;;;;;4993663;28;20407;-77
2023/08/19 09:19:24;;;;;;;2.38;0.80;;;19.00;99.90;;;;;;4992381;28;20045;-78
2023/08/19 09:21:50;;;;;;;2.00;1.08;;;18.90;99.90;;;;;;4976498;28;20037;-78
2023/08/19 09:24:16;;;;;;;3.35;1.15;;;19.00;99.90;;;;;;4994669;28;20109;-77
2023/08/19 09:26:43;;;;;;;1.75;0.70;;;19.00;99.90;;;;;;5009591;28;20097;-78
2023/08/19 09:29:09;;;;;;;2.22;0.80;;;19.10;99.90;;;;;;4992969;28;20444;-77
2023/08/19 09:31:34;;;;;;;2.50;0.60;;;19.20;99.90;;;;;;4994321;28;20038;-77
2023/08/19 09:34:00;;;;;;;3.53;0.50;;;19.40;99.90;;;;;;4993825;28;20030;-78
2023/08/19 09:36:28;;;;;;;2.58;0.60;;;19.70;99.90;;;;;;4994857;28;20104;-78
2023/08/19 09:38:55;;;;;;;1.73;0.80;;;19.90;99.90;;;;;;4994028;28;20097;-79
2023/08/19 09:41:25;;;;;;;2.20;0.80;;;20.10;99.90;;;;;;4994560;28;20038;-78
2023/08/19 09:43:50;;;;;;;5.38;0.88;;;20.20;99.90;;;;;;4993857;28;20026;-78
2023/08/19 09:46:16;;;;;;;4.85;0.93;;;20.10;99.90;;;;;;4993856;28;20383;-77
2023/08/19 09:48:56;;;;;;;2.03;0.60;;;20.10;99.90;;;;;;4994235;28;20412;-77
2023/08/19 09:51:26;;;;;;;2.05;0.75;;;20.00;99.90;;;;;;4994104;28;20033;-77
2023/08/19 09:53:53;;;;;;;2.00;0.70;;;20.00;99.90;;;;;;4993832;28;20522;-78
2023/08/19 09:56:23;;;;;;;2.95;0.80;;;20.10;99.90;;;;;;4994239;28;20050;-76
2023/08/19 09:58:51;;;;;;;3.22;0.70;;;20.30;99.90;;;;;;4994071;28;20425;-78
2023/08/19 10:01:17;;;;;;;5.35;0.70;;;20.50;99.90;;;;;;4994015;28;20049;-76
2023/08/19 10:03:43;;;;;;;3.17;0.68;;;20.70;99.90;;;;;;4993996;28;20038;-77
2023/08/19 10:06:15;;;;;;;4.13;1.05;;;20.70;99.90;;;;;;4993490;28;20109;-76
2023/08/19 10:08:44;;;;;;;2.95;1.10;;;20.90;99.90;;;;;;4993500;28;20494;-78
2023/08/19 10:11:12;;;;;;;3.30;1.02;;;21.10;99.90;;;;;;4992985;28;20045;-77
2023/08/19 10:13:38;;;;;;;2.78;0.65;;;21.10;99.90;;;;;;4992898;28;20034;-77
2023/08/19 10:16:05;;;;;;;4.90;1.27;;;21.10;99.90;;;;;;4991896;28;20113;-77
2023/08/19 10:18:35;;;;;;;5.18;0.88;;;21.00;99.90;;;;;;4992864;28;20037;-77
2023/08/19 10:21:07;;;;;;;1.50;0.68;;;21.10;99.90;;;;;;4992195;28;20097;-77
2023/08/19 10:23:35;;;;;;;2.50;0.83;;;21.10;99.90;;;;;;4992537;28;20129;-77
2023/08/19 10:26:01;;;;;;;3.42;0.70;;;21.00;99.90;;;;;;4992384;28;20264;-77
2023/08/19 10:28:27;;;;;;;4.47;0.75;;;21.10;99.90;;;;;;4992597;28;20490;-77
2023/08/19 10:31:10;;;;;;;2.53;0.70;;;21.20;99.90;;;;;;4991998;28;20146;-78
2023/08/19 10:33:46;;;;;;;1.55;0.60;;;21.20;99.90;;;;;;4993339;28;20411;-78
2023/08/19 10:36:17;;;;;;;3.38;0.88;;;21.20;99.90;;;;;;4992296;28;20030;-76
2023/08/19 10:38:45;;;;;;;4.35;0.75;;;21.30;99.90;;;;;;4992173;28;20050;-77
2023/08/19 10:41:36;;;;;;;1.92;0.60;;;21.40;99.90;;;;;;4991505;28;20041;-77
2023/08/19 10:44:02;;;;;;;4.95;0.93;;;21.30;99.90;;;;;;4991330;28;20034;-77
2023/08/19 10:46:33;;;;;;;3.55;0.88;;;21.40;99.90;;;;;;4992507;28;20128;-77
2023/08/19 10:49:00;;;;;;;2.05;0.82;;;21.50;99.90;;;;;;4992143;28;20030;-77
2023/08/19 10:52:00;;;;;;;2.88;0.88;;;21.70;99.90;;;;;;4992372;28;20066;-77
2023/08/19 10:54:28;;;;;;;1.52;0.70;;;21.90;99.90;;;;;;4993309;28;20038;-78
2023/08/19 10:57:33;;;;;;;2.70;0.70;;;21.80;99.90;;;;;;4997049;28;20042;-78
2023/08/19 11:00:08;;;;;;;6.22;1.13;;;21.70;99.90;;;;;;4999420;28;20047;-79
2023/08/19 11:02:34;;;;;;;1.88;0.73;;;21.60;99.90;;;;;;5015061;28;20114;-78
2023/08/19 11:05:03;;;;;;;5.40;0.90;;;21.50;99.90;;;;;;5015250;28;20037;-78
2023/08/19 11:07:29;;;;;;;2.33;0.55;;;21.40;99.90;;;;;;5011086;28;20026;-78
2023/08/19 11:09:54;;;;;;;1.63;0.80;;;21.40;99.90;;;;;;4994062;28;20062;-77
2023/08/19 11:12:22;;;;;;;3.08;0.70;;;21.40;99.90;;;;;;4992989;28;20069;-78
2023/08/19 11:14:50;;;;;;;2.17;0.75;;;21.40;99.90;;;;;;4992941;28;20207;-77
2023/08/19 11:17:17;;;;;;;2.42;0.73;;;21.30;99.90;;;;;;4991520;28;20041;-79
2023/08/19 11:19:43;;;;;;;3.22;0.60;;;21.20;99.90;;;;;;4991352;28;20412;-76
2023/08/19 11:22:16;;;;;;;1.50;0.50;;;21.30;99.90;;;;;;4989835;28;20026;-78
2023/08/19 11:24:42;;;;;;;3.97;0.93;;;21.50;99.90;;;;;;4991638;28;20120;-78
2023/08/19 11:27:08;;;;;;;2.47;0.90;;;21.40;99.90;;;;;;4990956;28;20090;-79
2023/08/19 11:29:38;;;;;;;3.08;0.60;;;21.50;99.90;;;;;;4974028;28;20042;-78
2023/08/19 11:32:04;;;;;;;4.32;0.77;;;21.50;99.90;;;;;;4971478;28;20031;-77
2023/08/19 11:34:30;;;;;;;2.28;0.68;;;21.50;99.90;;;;;;4981602;28;20034;-78
2023/08/19 11:36:56;;;;;;;1.38;0.45;;;21.50;99.90;;;;;;4990738;28;20038;-78
2023/08/19 11:39:22;;;;;;;3.25;0.80;;;21.60;99.90;;;;;;4989875;28;20046;-78
2023/08/19 11:41:48;;;;;;;1.50;0.70;;;21.50;99.90;;;;;;4991191;28;20027;-78
2023/08/19 11:44:14;;;;;;;4.53;1.33;;;21.50;99.90;;;;;;4990902;28;20038;-80
2023/08/19 11:46:40;;;;;;;3.80;0.82;;;21.50;99.90;;;;;;4991637;28;20172;-79
2023/08/19 11:49:08;;;;;;;4.20;0.90;;;21.50;99.90;;;;;;4989958;28;20039;-78
2023/08/19 11:51:38;;;;;;;3.15;0.93;;;21.50;99.90;;;;;;4991096;28;20030;-77
2023/08/19 11:54:09;;;;;;;3.38;0.95;;;21.60;99.90;;;;;;4990702;28;20117;-79
2023/08/19 11:56:46;;;;;;;2.63;1.10;;;21.60;99.90;;;;;;4991081;28;20077;-80
2023/08/19 11:59:12;;;;;;;1.35;0.60;;;21.60;99.90;;;;;;4990961;28;20523;-79
2023/08/19 12:01:37;;;;;;;2.30;0.98;;;21.60;99.90;;;;;;4991727;28;20337;-79
2023/08/19 12:04:11;;;;;;;2.33;0.60;;;21.50;99.90;;;;;;4991042;28;20045;-80
2023/08/19 12:06:38;;;;;;;2.40;0.77;;;21.50;99.90;;;;;;4990262;28;20030;-79
2023/08/19 12:09:04;;;;;;;5.55;1.05;;;21.50;99.90;;;;;;4990776;28;20034;-79
2023/08/19 12:11:30;;;;;;;3.42;0.70;;;21.50;99.90;;;;;;4989771;28;20088;-79
2023/08/19 12:13:57;;;;;;;3.67;0.90;;;21.50;99.90;;;;;;4991156;28;20030;-79
2023/08/19 12:16:23;;;;;;;2.45;0.80;;;21.40;99.90;;;;;;4990639;28;20117;-78
2023/08/19 12:18:49;;;;;;;2.15;0.70;;;21.40;99.90;;;;;;4991085;28;20138;-79
2023/08/19 12:21:15;;;;;;;2.70;0.85;;;21.40;99.90;;;;;;4989568;28;20073;-79
2023/08/19 12:23:40;;;;;;;3.92;0.90;;;21.40;99.90;;;;;;4990999;28;20072;-79
2023/08/19 12:26:06;;;;;;;3.65;1.00;;;21.50;99.90;;;;;;4990279;28;20092;-77
2023/08/19 12:28:32;;;;;;;4.70;0.82;;;21.50;99.90;;;;;;4991160;28;20034;-79
2023/08/19 12:30:57;;;;;;;3.38;0.85;;;21.50;99.90;;;;;;4990639;28;20185;-78
2023/08/19 12:33:24;;;;;;;4.20;0.93;;;21.60;99.90;;;;;;4990431;28;20484;-79
2023/08/19 12:35:51;;;;;;;2.53;0.90;;;21.80;99.90;;;;;;4991135;28;20029;-79
2023/08/19 12:38:19;;;;;;;2.92;0.70;;;21.80;99.90;;;;;;4989223;28;20058;-80
2023/08/19 12:40:46;;;;;;;1.08;0.70;;;21.70;99.90;;;;;;4990024;28;20363;-79
2023/08/19 12:43:13;;;;;;;2.63;0.85;;;21.80;99.90;;;;;;4990460;28;20031;-78
2023/08/19 12:45:40;;;;;;;3.15;1.27;;;21.70;99.90;;;;;;4991079;28;20022;-79